createdAt,value
2022-11-30T00:01:24.770Z,102.03
2022-11-30T00:03:56.097Z,98.43
2022-11-30T00:06:24.273Z,90.50
2022-11-30T00:09:00.657Z,95.45
2022-11-30T00:11:29.156Z,85.15
2022-11-30T00:13:56.892Z,110.60
2022-11-30T00:16:24.122Z,85.05
2022-11-30T00:18:51.325Z,96.82
2022-11-30T00:21:20.164Z,94.07
2022-11-30T00:23:47.808Z,97.95
2022-11-30T00:26:18.316Z,97.88
2022-11-30T00:28:46.779Z,97.78
2022-11-30T00:31:16.696Z,100.45
2022-11-30T00:33:43.966Z,101.35
2022-11-30T00:36:15.815Z,111.60
2022-11-30T00:38:43.728Z,107.60
2022-11-30T00:41:11.099Z,95.53
2022-11-30T00:43:38.345Z,90.25
2022-11-30T00:46:06.194Z,105.70
2022-11-30T00:48:33.049Z,94.53
2022-11-30T00:50:59.953Z,100.05
2022-11-30T00:53:27.387Z,93.90
2022-11-30T00:55:54.566Z,109.07
2022-11-30T00:58:21.541Z,98.55
2022-11-30T01:00:48.587Z,108.88
2022-11-30T01:03:16.795Z,102.40
2022-11-30T01:05:43.618Z,107.57
2022-11-30T01:08:11.884Z,94.15
2022-11-30T01:10:41.060Z,108.72
2022-11-30T01:13:08.418Z,100.43
2022-11-30T01:15:40.836Z,108.45
2022-11-30T01:18:07.748Z,111.82
2022-11-30T01:20:35.172Z,102.22
2022-11-30T01:23:01.980Z,115.57
2022-11-30T01:25:29.763Z,103.72
2022-11-30T01:27:56.765Z,102.57
2022-11-30T01:30:24.048Z,107.15
2022-11-30T01:32:50.828Z,105.80
2022-11-30T01:35:18.056Z,111.82
2022-11-30T01:37:44.824Z,105.53
2022-11-30T01:40:12.694Z,95.05
2022-11-30T01:42:46.829Z,105.35
2022-11-30T01:45:16.145Z,115.97
2022-11-30T01:47:49.735Z,101.85
2022-11-30T01:50:19.697Z,115.00
2022-11-30T01:52:54.908Z,130.20
2022-11-30T01:55:29.860Z,114.07
2022-11-30T01:58:08.616Z,117.53
2022-11-30T02:00:36.274Z,112.40
2022-11-30T02:05:43.277Z,112.57
2022-11-30T02:08:11.640Z,116.10
2022-11-30T02:10:42.575Z,107.00
2022-11-30T02:13:18.537Z,120.03
2022-11-30T02:16:05.211Z,126.60
2022-11-30T02:19:12.276Z,145.57
2022-11-30T02:21:52.559Z,142.60
2022-11-30T02:24:32.080Z,138.88
2022-11-30T02:27:19.130Z,130.60
2022-11-30T02:30:15.347Z,145.98
2022-11-30T02:33:02.792Z,124.10
2022-11-30T02:35:36.147Z,133.02
2022-11-30T02:38:05.715Z,156.35
2022-11-30T02:40:33.187Z,144.43
2022-11-30T02:43:03.710Z,151.43
2022-11-30T02:45:47.026Z,186.50
2022-11-30T02:48:18.284Z,146.43
2022-11-30T02:50:51.050Z,145.70
2022-11-30T02:53:18.070Z,157.48
2022-11-30T02:55:44.865Z,155.77
2022-11-30T02:58:13.276Z,169.05
2022-11-30T03:00:42.846Z,142.15
2022-11-30T03:03:11.052Z,169.85
2022-11-30T03:05:38.311Z,181.27
2022-11-30T03:08:05.744Z,177.48
2022-11-30T03:10:32.537Z,169.52
2022-11-30T03:13:00.527Z,180.73
2022-11-30T03:15:28.377Z,156.38
2022-11-30T03:17:55.992Z,142.20
2022-11-30T03:20:22.894Z,154.95
2022-11-30T03:22:49.746Z,140.38
2022-11-30T03:25:16.545Z,146.73
2022-11-30T03:27:43.334Z,152.60
2022-11-30T03:30:11.168Z,145.70
2022-11-30T03:32:38.477Z,157.63
2022-11-30T03:35:05.685Z,163.65
2022-11-30T03:37:32.978Z,156.32
2022-11-30T03:39:59.777Z,166.88
2022-11-30T03:42:27.302Z,144.77
2022-11-30T03:44:54.073Z,161.52
2022-11-30T03:47:21.322Z,183.00
2022-11-30T03:49:48.198Z,240.40
2022-11-30T03:52:15.033Z,201.57
2022-11-30T03:54:43.157Z,199.13
2022-11-30T03:57:10.105Z,213.32
2022-11-30T03:59:36.910Z,219.43
2022-11-30T04:02:04.349Z,221.20
2022-11-30T04:04:31.691Z,204.70
2022-11-30T04:06:58.520Z,236.43
2022-11-30T04:09:25.698Z,205.27
2022-11-30T04:11:54.894Z,214.00
2022-11-30T04:14:22.125Z,239.90
2022-11-30T04:16:48.874Z,236.82
2022-11-30T04:19:15.708Z,204.32
2022-11-30T04:21:42.933Z,196.75
2022-11-30T04:24:09.720Z,214.77
2022-11-30T04:26:37.699Z,193.50
2022-11-30T04:29:05.981Z,188.23
2022-11-30T04:31:32.971Z,188.27
2022-11-30T04:34:00.532Z,152.05
2022-11-30T04:36:27.290Z,164.68
2022-11-30T04:38:54.625Z,175.23
2022-11-30T04:41:21.410Z,201.63
2022-11-30T04:43:48.774Z,183.05
2022-11-30T04:46:15.616Z,191.20
2022-11-30T04:48:42.521Z,176.60
2022-11-30T04:51:09.505Z,179.48
2022-11-30T04:53:37.672Z,178.32
2022-11-30T04:56:10.189Z,179.60
2022-11-30T04:58:39.174Z,186.77
2022-11-30T05:01:06.944Z,179.38
2022-11-30T05:03:34.264Z,194.52
2022-11-30T05:06:01.393Z,205.98
2022-11-30T05:08:28.516Z,206.18
2022-11-30T05:10:55.771Z,176.00
2022-11-30T05:13:23.790Z,192.45
2022-11-30T05:15:51.324Z,209.93
2022-11-30T05:18:18.158Z,155.05
2022-11-30T05:20:54.379Z,178.00
2022-11-30T05:23:21.663Z,174.82
2022-11-30T05:25:50.735Z,187.73
2022-11-30T05:28:17.584Z,173.43
2022-11-30T05:30:44.520Z,168.40
2022-11-30T05:33:11.781Z,175.73
2022-11-30T05:35:39.068Z,192.23
2022-11-30T05:38:06.625Z,177.93
2022-11-30T05:40:34.135Z,165.23
2022-11-30T05:43:03.198Z,178.60
2022-11-30T05:45:31.335Z,200.70
2022-11-30T05:47:58.444Z,183.05
2022-11-30T05:50:25.801Z,172.88
2022-11-30T05:52:56.545Z,183.90
2022-11-30T05:55:27.116Z,173.25
2022-11-30T05:57:54.425Z,194.73
2022-11-30T06:00:21.919Z,180.77
2022-11-30T06:02:48.877Z,179.80
2022-11-30T06:05:16.629Z,204.10
2022-11-30T06:07:45.907Z,184.32
2022-11-30T06:10:14.174Z,207.07
2022-11-30T06:12:41.475Z,207.00
2022-11-30T06:15:11.618Z,187.80
2022-11-30T06:17:40.009Z,211.40
2022-11-30T06:20:08.018Z,190.07
2022-11-30T06:22:35.518Z,201.13
2022-11-30T06:25:03.790Z,205.95
2022-11-30T06:27:32.464Z,205.02
2022-11-30T06:29:59.621Z,216.70
2022-11-30T06:32:26.430Z,189.43
2022-11-30T06:34:54.765Z,227.32
2022-11-30T06:37:22.835Z,199.52
2022-11-30T06:40:05.927Z,201.90
2022-11-30T06:42:35.167Z,213.27
2022-11-30T06:45:02.609Z,192.80
2022-11-30T06:47:29.546Z,209.27
2022-11-30T06:49:59.143Z,190.63
2022-11-30T06:52:26.850Z,175.80
2022-11-30T06:54:54.047Z,188.00
2022-11-30T06:57:21.335Z,154.63
2022-11-30T06:59:48.119Z,159.20
2022-11-30T07:02:18.483Z,152.63
2022-11-30T07:04:46.183Z,129.73
2022-11-30T07:07:13.277Z,153.48
2022-11-30T07:09:40.622Z,126.85
2022-11-30T07:12:09.155Z,124.35
2022-11-30T07:14:36.053Z,144.68
2022-11-30T07:17:04.918Z,127.07
2022-11-30T07:19:36.560Z,122.72
2022-11-30T07:22:05.301Z,140.23
2022-11-30T07:24:51.091Z,127.65
2022-11-30T07:27:17.859Z,159.77
2022-11-30T07:29:44.759Z,136.30
2022-11-30T07:32:11.716Z,150.68
2022-11-30T07:34:38.945Z,163.00
2022-11-30T07:37:05.844Z,148.57
2022-11-30T07:39:33.189Z,124.25
2022-11-30T07:42:00.100Z,130.73
2022-11-30T07:44:28.096Z,137.57
2022-11-30T07:46:54.928Z,142.98
2022-11-30T07:49:22.227Z,194.82
2022-11-30T07:51:49.132Z,393.77
2022-11-30T07:54:15.962Z,169.73
2022-11-30T07:56:43.977Z,268.85
2022-11-30T07:59:10.960Z,280.58
2022-11-30T08:01:38.438Z,181.68
2022-11-30T08:04:05.561Z,304.52
2022-11-30T08:06:32.501Z,185.52
2022-11-30T08:09:02.226Z,201.15
2022-11-30T08:11:33.941Z,151.15
2022-11-30T08:14:02.395Z,168.20
2022-11-30T08:16:32.027Z,125.40
2022-11-30T08:19:00.724Z,98.20
2022-11-30T08:21:30.735Z,130.10
2022-11-30T08:23:58.078Z,105.18
2022-11-30T08:26:32.159Z,119.00
2022-11-30T08:29:00.450Z,149.48
2022-11-30T08:31:29.931Z,96.40
2022-11-30T08:33:59.414Z,113.93
2022-11-30T08:36:28.288Z,92.80
2022-11-30T08:38:58.334Z,109.05
2022-11-30T08:41:26.166Z,96.35
2022-11-30T08:43:53.576Z,98.45
2022-11-30T08:49:21.386Z,122.45
2022-11-30T08:54:39.133Z,109.05
2022-11-30T08:57:06.610Z,110.05
2022-11-30T08:59:33.852Z,113.88
2022-11-30T09:02:01.167Z,119.13
2022-11-30T09:04:27.989Z,104.25
2022-11-30T09:06:59.028Z,96.32
2022-11-30T09:09:27.936Z,95.97
2022-11-30T09:14:23.065Z,103.93
2022-11-30T09:16:50.345Z,110.40
2022-11-30T09:19:17.140Z,111.60
2022-11-30T09:21:50.930Z,97.25
2022-11-30T09:24:19.211Z,95.35
2022-11-30T09:26:46.386Z,79.07
2022-11-30T09:29:14.720Z,85.32
2022-11-30T09:31:41.574Z,90.68
2022-11-30T09:34:12.145Z,87.03
2022-11-30T09:36:39.463Z,102.20
2022-11-30T09:39:06.830Z,109.35
2022-11-30T09:41:45.692Z,101.70
2022-11-30T09:44:18.860Z,76.18
2022-11-30T09:47:00.182Z,86.53
2022-11-30T09:49:39.766Z,99.88
2022-11-30T09:52:14.406Z,92.63
2022-11-30T09:54:44.125Z,88.18
2022-11-30T09:57:33.832Z,97.25
2022-11-30T10:00:04.732Z,89.78
2022-11-30T10:02:40.471Z,92.80
2022-11-30T10:05:19.854Z,88.13
2022-11-30T10:08:18.152Z,83.43
2022-11-30T10:11:17.354Z,86.18
2022-11-30T10:14:23.969Z,92.10
2022-11-30T10:16:57.944Z,97.93
2022-11-30T10:20:04.084Z,105.03
2022-11-30T10:22:46.283Z,98.57
2022-11-30T10:25:33.844Z,91.80
2022-11-30T10:28:46.468Z,85.10
2022-11-30T10:31:15.710Z,97.10
2022-11-30T10:33:51.399Z,102.60
2022-11-30T10:36:36.523Z,97.03
2022-11-30T10:39:14.242Z,78.28
2022-11-30T10:41:51.258Z,83.47
2022-11-30T10:44:40.567Z,81.65
2022-11-30T10:47:26.646Z,76.82
2022-11-30T10:49:53.516Z,80.97
2022-11-30T10:52:50.186Z,89.93
2022-11-30T10:55:44.519Z,76.40
2022-11-30T10:58:20.809Z,87.68
2022-11-30T11:00:59.543Z,81.90
2022-11-30T11:03:28.042Z,91.82
2022-11-30T11:06:17.101Z,89.43
2022-11-30T11:08:45.683Z,97.28
2022-11-30T11:11:34.982Z,83.95
2022-11-30T11:14:23.222Z,79.68
2022-11-30T11:17:02.909Z,83.80
2022-11-30T11:19:34.485Z,72.35
2022-11-30T11:22:08.531Z,76.80
2022-11-30T11:24:36.633Z,93.40
2022-11-30T11:27:03.753Z,81.95
2022-11-30T11:29:34.996Z,75.63
2022-11-30T11:32:12.181Z,93.53
2022-11-30T11:34:39.091Z,84.05
2022-11-30T11:37:15.489Z,76.35
2022-11-30T11:39:56.951Z,85.25
2022-11-30T11:42:40.964Z,87.90
2022-11-30T11:45:30.528Z,88.38
2022-11-30T11:47:59.743Z,94.15
2022-11-30T11:51:06.076Z,81.90
2022-11-30T11:53:39.580Z,84.35
2022-11-30T11:56:19.589Z,81.43
2022-11-30T11:59:14.195Z,83.53
2022-11-30T12:02:05.720Z,81.25
2022-11-30T12:04:47.196Z,84.80
2022-11-30T12:07:35.416Z,97.07
2022-11-30T12:10:49.995Z,78.15
2022-11-30T12:13:14.175Z,103.47
2022-11-30T12:15:56.448Z,91.05
2022-11-30T12:18:51.529Z,68.40
2022-11-30T12:21:26.450Z,60.00
2022-11-30T12:24:16.409Z,80.70
2022-11-30T12:26:51.018Z,72.75
2022-11-30T12:29:31.859Z,63.25
2022-11-30T12:32:25.958Z,72.22
2022-11-30T12:34:57.025Z,67.30
2022-11-30T12:37:35.836Z,71.07
2022-11-30T12:40:45.748Z,63.25
2022-11-30T12:43:43.531Z,61.38
2022-11-30T12:46:15.308Z,64.53
2022-11-30T12:49:13.084Z,58.75
2022-11-30T12:52:37.712Z,65.80
2022-11-30T12:55:35.077Z,53.03
2022-11-30T12:58:27.707Z,61.95
2022-11-30T13:01:05.191Z,46.40
2022-11-30T13:03:50.366Z,53.47
2022-11-30T13:06:59.986Z,61.40
2022-11-30T13:09:52.361Z,54.50
2022-11-30T13:12:37.415Z,67.05
2022-11-30T13:15:19.004Z,62.38
2022-11-30T13:17:46.937Z,47.85
2022-11-30T13:20:42.581Z,51.63
2022-11-30T13:23:21.338Z,60.70
2022-11-30T13:26:13.335Z,56.15
2022-11-30T13:28:50.309Z,57.88
2022-11-30T13:31:47.495Z,60.63
2022-11-30T13:34:28.859Z,46.53
2022-11-30T13:37:24.394Z,56.05
2022-11-30T13:39:57.604Z,53.78
2022-11-30T13:42:50.240Z,51.40
2022-11-30T13:45:30.636Z,58.65
2022-11-30T13:47:58.738Z,61.95
2022-11-30T13:50:33.934Z,59.22
2022-11-30T13:53:00.779Z,57.22
2022-11-30T13:55:46.268Z,71.53
2022-11-30T13:58:15.767Z,58.40
2022-11-30T14:01:02.983Z,53.80
2022-11-30T14:03:34.297Z,45.42
2022-11-30T14:06:05.765Z,56.13
2022-11-30T14:08:38.054Z,46.15
2022-11-30T14:11:35.946Z,45.22
2022-11-30T14:14:57.165Z,45.10
2022-11-30T14:17:27.096Z,49.70
2022-11-30T14:20:16.060Z,49.72
2022-11-30T14:22:44.266Z,48.47
2022-11-30T14:25:21.384Z,50.33
2022-11-30T14:27:50.932Z,53.95
2022-11-30T14:30:21.369Z,46.60
2022-11-30T14:33:04.982Z,58.88
2022-11-30T14:35:35.544Z,50.22
2022-11-30T14:38:14.687Z,55.45
2022-11-30T14:40:52.498Z,47.85
2022-11-30T14:43:19.535Z,55.67
2022-11-30T14:46:09.197Z,47.90
2022-11-30T14:48:39.664Z,55.25
2022-11-30T14:51:07.274Z,58.92
2022-11-30T14:53:53.547Z,51.78
2022-11-30T14:56:44.414Z,63.85
2022-11-30T14:59:26.276Z,86.57
2022-11-30T15:02:03.080Z,54.35
2022-11-30T15:04:31.016Z,57.55
2022-11-30T15:06:59.827Z,67.35
2022-11-30T15:09:31.840Z,61.92
2022-11-30T15:11:59.362Z,63.33
2022-11-30T15:14:26.620Z,48.67
2022-11-30T15:16:57.296Z,56.42
2022-11-30T15:19:28.517Z,53.47
2022-11-30T15:21:57.846Z,54.85
2022-11-30T15:24:25.855Z,58.58
2022-11-30T15:27:06.983Z,65.25
2022-11-30T15:29:45.143Z,61.13
2022-11-30T15:32:24.183Z,56.92
2022-11-30T15:34:56.994Z,82.80
2022-11-30T15:37:32.543Z,54.03
2022-11-30T15:40:03.907Z,60.53
2022-11-30T15:42:40.111Z,55.58
2022-11-30T15:45:25.553Z,61.22
2022-11-30T15:47:54.484Z,59.33
2022-11-30T15:50:28.646Z,58.50
2022-11-30T15:53:04.441Z,58.03
2022-11-30T15:55:46.324Z,51.38
2022-11-30T15:58:46.670Z,67.75
2022-11-30T16:01:24.635Z,52.22
2022-11-30T16:04:04.745Z,58.60
2022-11-30T16:06:46.191Z,54.00
2022-11-30T16:09:34.223Z,50.58
2022-11-30T16:12:02.589Z,53.70
2022-11-30T16:15:15.746Z,62.85
2022-11-30T16:17:48.971Z,53.05
2022-11-30T16:23:28.877Z,61.67
2022-11-30T16:25:56.249Z,55.03
2022-11-30T16:28:23.444Z,58.28
2022-11-30T16:30:50.951Z,51.60
2022-11-30T16:33:23.460Z,63.75
2022-11-30T16:36:03.337Z,56.30
2022-11-30T16:38:31.592Z,55.35
2022-11-30T16:41:12.671Z,48.47
2022-11-30T16:43:41.098Z,51.58
2022-11-30T16:46:13.753Z,57.47
2022-11-30T16:48:41.818Z,59.70
2022-11-30T16:51:28.818Z,60.03
2022-11-30T16:53:56.295Z,56.00
2022-11-30T16:56:24.303Z,66.70
2022-11-30T16:58:53.762Z,44.35
2022-11-30T17:01:36.015Z,56.45
2022-11-30T17:04:23.390Z,53.20
2022-11-30T17:06:55.867Z,51.08
2022-11-30T17:09:28.716Z,49.00
2022-11-30T17:11:55.772Z,52.33
2022-11-30T17:14:23.690Z,55.28
2022-11-30T17:16:50.832Z,51.65
2022-11-30T17:19:18.214Z,47.60
2022-11-30T17:21:46.662Z,56.65
2022-11-30T17:24:14.091Z,59.05
2022-11-30T17:26:42.806Z,54.85
2022-11-30T17:29:10.097Z,67.10
2022-11-30T17:31:37.230Z,65.47
2022-11-30T17:34:05.751Z,56.80
2022-11-30T17:36:32.876Z,52.45
2022-11-30T17:38:59.729Z,63.90
2022-11-30T17:41:28.162Z,62.13
2022-11-30T17:43:55.372Z,56.65
2022-11-30T17:46:23.100Z,55.88
2022-11-30T17:48:50.509Z,54.03
2022-11-30T17:51:24.723Z,53.05
2022-11-30T17:53:55.787Z,53.50
2022-11-30T17:59:05.493Z,57.63
2022-11-30T18:01:32.625Z,49.55
2022-11-30T18:03:59.870Z,59.08
2022-11-30T18:06:26.712Z,52.08
2022-11-30T18:08:54.679Z,49.95
2022-11-30T18:11:24.546Z,60.80
2022-11-30T18:13:54.410Z,52.03
2022-11-30T18:16:23.943Z,53.83
2022-11-30T18:18:54.297Z,51.00
2022-11-30T18:21:23.640Z,46.70
2022-11-30T18:23:53.836Z,53.78
2022-11-30T18:26:24.815Z,48.08
2022-11-30T18:28:58.262Z,57.22
2022-11-30T18:31:26.563Z,45.17
2022-11-30T18:34:03.406Z,55.47
2022-11-30T18:36:31.358Z,57.00
2022-11-30T18:38:58.266Z,53.85
2022-11-30T18:41:26.893Z,54.75
2022-11-30T18:43:57.266Z,48.28
2022-11-30T18:46:25.189Z,49.25
2022-11-30T18:49:00.453Z,51.90
2022-11-30T18:51:31.974Z,43.65
2022-11-30T18:54:07.065Z,51.65
2022-11-30T18:56:41.272Z,51.33
2022-11-30T18:59:12.861Z,48.40
2022-11-30T19:01:40.100Z,53.13
2022-11-30T19:04:10.504Z,45.75
2022-11-30T19:06:44.517Z,49.67
2022-11-30T19:09:15.399Z,50.40
2022-11-30T19:11:49.332Z,42.60
2022-11-30T19:14:19.208Z,46.15
2022-11-30T19:16:48.178Z,53.17
2022-11-30T19:19:18.755Z,55.55
2022-11-30T19:21:48.151Z,56.95
2022-11-30T19:24:18.099Z,48.38
2022-11-30T19:26:47.577Z,50.45
2022-11-30T19:29:15.786Z,47.90
2022-11-30T19:32:05.092Z,53.35
2022-11-30T19:34:37.645Z,52.38
2022-11-30T19:37:05.122Z,49.67
2022-11-30T19:42:16.355Z,47.03
2022-11-30T19:44:46.538Z,55.30
2022-11-30T19:47:23.594Z,47.63
2022-11-30T19:49:53.747Z,48.67
2022-11-30T19:52:25.454Z,52.22
2022-11-30T19:54:55.686Z,58.72
2022-11-30T19:57:26.462Z,49.17
2022-11-30T20:00:01.896Z,54.80
2022-11-30T20:05:20.358Z,50.42
2022-11-30T20:07:51.387Z,54.78
2022-11-30T20:10:19.605Z,55.05
2022-11-30T20:12:50.855Z,45.00
2022-11-30T20:15:22.622Z,45.58
2022-11-30T20:17:51.002Z,58.08
2022-11-30T20:20:27.245Z,54.53
2022-11-30T20:23:01.096Z,47.63
2022-11-30T20:25:31.940Z,55.00
2022-11-30T20:28:12.293Z,55.10
2022-11-30T20:33:51.169Z,48.05
2022-11-30T20:36:28.556Z,55.10
2022-11-30T20:39:00.509Z,44.85
2022-11-30T20:41:34.615Z,58.53
2022-11-30T20:44:36.828Z,54.88
2022-11-30T20:47:06.797Z,47.60
2022-11-30T20:49:33.864Z,53.30
2022-11-30T20:52:01.169Z,60.80
2022-11-30T20:54:32.330Z,50.50
2022-11-30T20:57:01.418Z,54.22
2022-11-30T20:59:39.311Z,47.00
2022-11-30T21:02:15.152Z,46.50
2022-11-30T21:04:44.504Z,44.60
2022-11-30T21:07:20.361Z,48.55
2022-11-30T21:12:34.741Z,54.38
2022-11-30T21:15:02.327Z,51.53
2022-11-30T21:17:29.781Z,55.60
2022-11-30T21:19:58.980Z,54.28
2022-11-30T21:22:37.587Z,53.28
2022-11-30T21:25:45.121Z,52.63
2022-11-30T21:28:13.621Z,59.65
2022-11-30T21:30:45.442Z,55.08
2022-11-30T21:33:12.269Z,57.03
2022-11-30T21:35:40.539Z,52.22
2022-11-30T21:38:07.941Z,49.28
2022-11-30T21:40:34.706Z,58.33
2022-11-30T21:43:02.002Z,55.38
2022-11-30T21:45:29.061Z,50.03
2022-11-30T21:47:56.290Z,51.92
2022-11-30T21:50:27.034Z,58.50
2022-11-30T21:52:55.509Z,59.70
2022-11-30T21:55:22.361Z,49.13
2022-11-30T21:57:55.214Z,54.53
2022-11-30T22:00:22.497Z,54.60
2022-11-30T22:02:49.385Z,55.45
2022-11-30T22:05:16.381Z,58.58
2022-11-30T22:07:46.385Z,46.00
2022-11-30T22:10:13.906Z,59.50
2022-11-30T22:12:41.479Z,49.22
2022-11-30T22:15:09.502Z,49.63
2022-11-30T22:17:37.708Z,55.28
2022-11-30T22:20:07.726Z,56.33
2022-11-30T22:22:35.345Z,48.50
2022-11-30T22:25:08.645Z,56.83
2022-11-30T22:27:36.871Z,55.13
2022-11-30T22:30:04.470Z,52.45
2022-11-30T22:32:33.565Z,59.13
2022-11-30T22:35:00.580Z,56.10
2022-11-30T22:37:27.468Z,55.88
2022-11-30T22:39:54.787Z,47.58
2022-11-30T22:42:21.711Z,61.83
2022-11-30T22:44:48.608Z,51.90
2022-11-30T22:47:15.476Z,49.67
2022-11-30T22:49:42.297Z,47.63
2022-11-30T22:52:12.073Z,55.35
2022-11-30T22:54:38.958Z,55.10
2022-11-30T22:57:06.129Z,50.88
2022-11-30T22:59:32.920Z,54.55
2022-11-30T23:02:00.726Z,61.00
2022-11-30T23:04:27.546Z,58.15
2022-11-30T23:06:56.170Z,48.50
2022-11-30T23:09:23.305Z,60.55
2022-11-30T23:11:51.904Z,51.45
2022-11-30T23:14:21.448Z,49.35
2022-11-30T23:16:49.573Z,60.90
2022-11-30T23:19:16.572Z,54.40
2022-11-30T23:21:49.228Z,52.90
2022-11-30T23:24:20.703Z,57.47
2022-11-30T23:26:49.012Z,45.30
2022-11-30T23:29:26.734Z,56.75
2022-11-30T23:31:53.998Z,60.20
2022-11-30T23:34:22.292Z,46.60
2022-11-30T23:36:51.768Z,56.15
2022-11-30T23:39:19.803Z,58.20
2022-11-30T23:41:47.496Z,53.83
2022-11-30T23:44:16.192Z,54.38
2022-11-30T23:46:43.472Z,49.63
2022-11-30T23:49:13.472Z,53.67
2022-11-30T23:51:40.298Z,46.10
2022-11-30T23:54:07.714Z,51.20
2022-11-30T23:56:34.843Z,46.42
2022-11-30T23:59:01.697Z,44.90
